Time;durP1;ratioP1;P1;durP2;ratioP2;P2;SDS_P1;SDS_P2;PMS_P1;PMS_P2;Temp;Humidity;BMP_temperature;BMP_pressure;BME280_temperature;BME280_humidity;BME280_pressure;Samples;Min_cycle;Max_cycle;Signal;HPM_P1;HPM_P2
2023/01/17 00:01:09;;;;;;;3.93;1.30;;;;;;;;;;4954828;28;20202;-82
2023/01/17 00:11:50;;;;;;;5.50;1.80;;;;;;;;;;4962213;28;20218;-79
2023/01/17 00:14:16;;;;;;;4.23;1.17;;;;;;;;;;4941376;29;20242;-79
2023/01/17 00:16:42;;;;;;;4.30;1.43;;;;;;;;;;4925453;29;20191;-79
2023/01/17 01:34:05;;;;;;;4.40;1.23;;;;;;;;;;4976546;28;20252;-78
2023/01/17 01:36:31;;;;;;;16.07;6.57;;;;;;;;;;4942519;28;20190;-78
2023/01/17 01:38:57;;;;;;;7.57;3.30;;;;;;;;;;4959094;28;20214;-78
2023/01/17 01:41:23;;;;;;;31.57;11.37;;;;;;;;;;4959124;28;20217;-78
2023/01/17 01:43:53;;;;;;;32.97;11.70;;;;;;;;;;4942609;28;20222;-79
2023/01/17 01:46:31;;;;;;;26.67;9.83;;;;;;;;;;4958962;28;20225;-78
2023/01/17 01:49:01;;;;;;;38.83;14.00;;;;;;;;;;4957413;28;20183;-79
2023/01/17 01:51:39;;;;;;;28.10;11.07;;;;;;;;;;4958509;28;20252;-78
2023/01/17 01:54:17;;;;;;;36.23;15.27;;;;;;;;;;4958184;28;20220;-79
2023/01/17 01:56:44;;;;;;;10.23;6.03;;;;;;;;;;4949345;28;20238;-78
2023/01/17 01:59:12;;;;;;;4.57;2.07;;;;;;;;;;4933951;28;20245;-78
2023/01/17 02:01:38;;;;;;;12.60;9.07;;;;;;;;;;4949453;28;20237;-78
2023/01/17 02:04:08;;;;;;;5.80;4.30;;;;;;;;;;4979513;28;20230;-78
2023/01/17 02:06:46;;;;;;;4.20;3.80;;;;;;;;;;4979260;28;20178;-78
2023/01/17 02:09:14;;;;;;;3.73;2.30;;;;;;;;;;4947425;28;20187;-79
2023/01/17 02:11:41;;;;;;;2.90;2.03;;;;;;;;;;4941896;28;20187;-79
2023/01/17 02:14:07;;;;;;;3.43;2.30;;;;;;;;;;4941747;28;20229;-78
2023/01/17 02:16:42;;;;;;;4.00;3.57;;;;;;;;;;4942183;28;20214;-79
2023/01/17 02:19:23;;;;;;;5.10;4.20;;;;;;;;;;4958018;28;20189;-79
2023/01/17 02:21:49;;;;;;;3.77;3.40;;;;;;;;;;4974048;28;20303;-79
2023/01/17 02:24:18;;;;;;;2.00;1.80;;;;;;;;;;4957205;28;20241;-83
2023/01/17 02:27:05;;;;;;;1.60;1.50;;;;;;;;;;4958045;28;20178;-83
2023/01/17 02:29:31;;;;;;;6.77;4.00;;;;;;;;;;4919157;28;20246;-84
2023/01/17 02:32:06;;;;;;;2.03;1.60;;;;;;;;;;4956614;28;20183;-84
2023/01/17 02:34:32;;;;;;;2.27;1.80;;;;;;;;;;4958332;28;20190;-84
2023/01/17 02:37:05;;;;;;;2.67;1.97;;;;;;;;;;4958355;28;20237;-83
2023/01/17 02:39:34;;;;;;;5.00;1.63;;;;;;;;;;4957715;28;20218;-78
2023/01/17 02:42:02;;;;;;;2.90;1.80;;;;;;;;;;4957272;28;20187;-78
2023/01/17 02:44:28;;;;;;;3.47;1.40;;;;;;;;;;4957587;28;20241;-79
2023/01/17 02:46:55;;;;;;;5.47;1.57;;;;;;;;;;4941639;28;20218;-78
2023/01/17 02:49:24;;;;;;;4.20;1.70;;;;;;;;;;4957436;28;20269;-79
2023/01/17 02:51:53;;;;;;;3.30;2.00;;;;;;;;;;4956799;28;20226;-79
2023/01/17 02:54:38;;;;;;;6.27;2.07;;;;;;;;;;4957442;28;20191;-79
2023/01/17 02:57:10;;;;;;;3.80;1.77;;;;;;;;;;4940422;28;20201;-78
2023/01/17 02:59:37;;;;;;;1.97;1.57;;;;;;;;;;4942488;28;20202;-78
2023/01/17 03:02:18;;;;;;;4.03;1.80;;;;;;;;;;4954955;28;20193;-78
2023/01/17 03:04:46;;;;;;;4.23;2.03;;;;;;;;;;4976772;28;20232;-78
2023/01/17 03:07:17;;;;;;;5.67;1.77;;;;;;;;;;4954028;28;20182;-78
2023/01/17 03:09:48;;;;;;;3.07;1.63;;;;;;;;;;4961143;28;20236;-78
2023/01/17 03:12:14;;;;;;;5.63;1.40;;;;;;;;;;4977447;28;20183;-78
2023/01/17 03:14:40;;;;;;;3.07;1.23;;;;;;;;;;4960618;28;20191;-83
2023/01/17 03:17:07;;;;;;;3.40;1.37;;;;;;;;;;4944879;28;20194;-78
2023/01/17 03:19:33;;;;;;;1.70;1.13;;;;;;;;;;4961181;28;20191;-79
2023/01/17 03:21:59;;;;;;;2.53;1.33;;;;;;;;;;4943961;28;20199;-78
2023/01/17 03:24:25;;;;;;;4.23;1.03;;;;;;;;;;4941073;28;20228;-79
2023/01/17 03:26:51;;;;;;;4.23;1.20;;;;;;;;;;4960931;28;20187;-79
2023/01/17 03:29:17;;;;;;;3.00;1.30;;;;;;;;;;4961390;28;20178;-78
2023/01/17 03:31:43;;;;;;;3.37;1.40;;;;;;;;;;4953074;28;20187;-78
2023/01/17 03:34:09;;;;;;;3.30;1.30;;;;;;;;;;4957568;28;20183;-81
2023/01/17 03:36:35;;;;;;;4.77;1.60;;;;;;;;;;4938162;28;20250;-81
2023/01/17 03:39:01;;;;;;;3.13;1.50;;;;;;;;;;4936906;28;20187;-82
2023/01/17 03:41:27;;;;;;;2.77;1.30;;;;;;;;;;4935928;28;20199;-81
2023/01/17 03:43:53;;;;;;;2.90;1.40;;;;;;;;;;4969221;28;20191;-81
2023/01/17 03:46:28;;;;;;;3.10;1.60;;;;;;;;;;4982702;28;20182;-83
2023/01/17 03:48:54;;;;;;;4.90;1.60;;;;;;;;;;4950483;28;20266;-84
2023/01/17 03:51:21;;;;;;;2.37;1.57;;;;;;;;;;4935058;28;20217;-83
2023/01/17 03:53:47;;;;;;;4.77;2.20;;;;;;;;;;4936001;28;20178;-84
2023/01/17 03:56:13;;;;;;;4.47;1.90;;;;;;;;;;4949523;28;20187;-83
2023/01/17 03:58:39;;;;;;;5.93;2.10;;;;;;;;;;4982537;28;20197;-84
2023/01/17 04:01:05;;;;;;;3.53;2.10;;;;;;;;;;4952804;28;20186;-84
2023/01/17 04:03:31;;;;;;;4.97;2.10;;;;;;;;;;4961282;28;20300;-81
2023/01/17 04:05:57;;;;;;;5.23;2.00;;;;;;;;;;4941841;28;20215;-82
2023/01/17 04:08:23;;;;;;;6.30;1.80;;;;;;;;;;4959192;28;20230;-82
2023/01/17 04:10:49;;;;;;;5.33;1.70;;;;;;;;;;4937589;28;20232;-82
2023/01/17 04:13:15;;;;;;;3.70;1.60;;;;;;;;;;4966513;28;20179;-82
2023/01/17 04:15:42;;;;;;;3.43;1.53;;;;;;;;;;4950348;28;20234;-81
2023/01/17 04:18:10;;;;;;;7.63;1.50;;;;;;;;;;4951297;28;20189;-82
2023/01/17 04:20:38;;;;;;;4.63;1.23;;;;;;;;;;4967438;28;20247;-79
2023/01/17 04:23:04;;;;;;;3.77;1.30;;;;;;;;;;4952108;28;20234;-79
2023/01/17 04:25:30;;;;;;;8.80;1.40;;;;;;;;;;4940391;28;20214;-79
2023/01/17 04:27:57;;;;;;;7.73;1.30;;;;;;;;;;4951656;28;20207;-79
2023/01/17 04:30:23;;;;;;;5.33;1.30;;;;;;;;;;4949926;28;20171;-79
2023/01/17 04:32:49;;;;;;;2.63;1.20;;;;;;;;;;4950310;28;20201;-79
2023/01/17 04:35:15;;;;;;;5.93;1.30;;;;;;;;;;4937607;28;20214;-84
2023/01/17 04:37:42;;;;;;;4.33;1.27;;;;;;;;;;4982020;28;20197;-78
2023/01/17 04:40:08;;;;;;;4.57;1.50;;;;;;;;;;4935095;28;20189;-78
2023/01/17 04:42:34;;;;;;;7.07;1.50;;;;;;;;;;4939796;28;20202;-78
2023/01/17 04:45:00;;;;;;;7.23;1.73;;;;;;;;;;4980926;28;20218;-77
2023/01/17 04:47:26;;;;;;;4.60;2.17;;;;;;;;;;4935205;28;20218;-82
2023/01/17 04:49:52;;;;;;;4.53;2.20;;;;;;;;;;4935193;28;20175;-82
2023/01/17 04:52:19;;;;;;;5.43;2.30;;;;;;;;;;4967059;28;20194;-79
2023/01/17 04:54:48;;;;;;;5.63;2.63;;;;;;;;;;4958686;28;20218;-79
2023/01/17 04:57:15;;;;;;;7.03;2.87;;;;;;;;;;4949266;28;20183;-79
2023/01/17 04:59:41;;;;;;;4.87;2.67;;;;;;;;;;4952307;28;20262;-79
2023/01/17 05:02:07;;;;;;;8.87;3.80;;;;;;;;;;4961015;28;20206;-79
2023/01/17 05:04:33;;;;;;;5.60;2.83;;;;;;;;;;4967847;28;20243;-78
2023/01/17 05:06:59;;;;;;;9.20;3.27;;;;;;;;;;4981158;28;20306;-79
2023/01/17 05:09:25;;;;;;;5.00;3.20;;;;;;;;;;4950661;28;20183;-78
2023/01/17 05:11:51;;;;;;;10.47;3.23;;;;;;;;;;4950167;28;20296;-83
2023/01/17 05:14:17;;;;;;;10.57;3.30;;;;;;;;;;4951424;28;20255;-79
2023/01/17 05:16:43;;;;;;;6.03;2.63;;;;;;;;;;4966484;28;20194;-78
2023/01/17 05:19:09;;;;;;;9.50;3.07;;;;;;;;;;4975947;28;20179;-79
2023/01/17 05:21:35;;;;;;;6.87;2.77;;;;;;;;;;4959090;28;20182;-79
2023/01/17 05:24:01;;;;;;;10.90;2.70;;;;;;;;;;4942395;28;20286;-78
2023/01/17 05:26:27;;;;;;;6.83;2.60;;;;;;;;;;4943158;28;20190;-82
2023/01/17 05:28:53;;;;;;;7.47;2.53;;;;;;;;;;4942943;28;20191;-83
2023/01/17 05:31:19;;;;;;;7.23;2.67;;;;;;;;;;4933384;29;20191;-83
2023/01/17 05:33:45;;;;;;;9.70;2.93;;;;;;;;;;4954703;28;20191;-83
2023/01/17 05:36:11;;;;;;;9.27;2.80;;;;;;;;;;4942766;28;20191;-83
2023/01/17 05:38:37;;;;;;;9.80;3.60;;;;;;;;;;4958519;28;20191;-78
2023/01/17 05:41:04;;;;;;;11.50;3.43;;;;;;;;;;4942926;28;20191;-78
2023/01/17 05:43:30;;;;;;;11.33;3.23;;;;;;;;;;4942466;28;20191;-81
2023/01/17 05:45:56;;;;;;;8.97;3.70;;;;;;;;;;4954554;28;20217;-81
2023/01/17 05:48:22;;;;;;;7.37;3.70;;;;;;;;;;4939397;29;20187;-81
2023/01/17 05:50:48;;;;;;;8.73;3.53;;;;;;;;;;4955557;29;20197;-81
2023/01/17 05:53:15;;;;;;;9.50;3.40;;;;;;;;;;4963415;28;20179;-82
2023/01/17 05:55:42;;;;;;;6.60;3.40;;;;;;;;;;4946938;28;20194;-81
2023/01/17 05:58:12;;;;;;;9.43;3.83;;;;;;;;;;4942381;28;20198;-83
2023/01/17 06:00:38;;;;;;;9.33;3.80;;;;;;;;;;4957750;28;20278;-78
2023/01/17 06:03:04;;;;;;;11.10;3.80;;;;;;;;;;4956628;28;20316;-78
2023/01/17 06:05:30;;;;;;;10.77;3.60;;;;;;;;;;4958722;28;20225;-78
2023/01/17 06:07:57;;;;;;;10.00;4.10;;;;;;;;;;4970381;28;20270;-78
2023/01/17 06:10:23;;;;;;;9.03;3.67;;;;;;;;;;4975550;28;20186;-78
2023/01/17 06:12:50;;;;;;;7.60;3.60;;;;;;;;;;4957501;28;20218;-78
2023/01/17 06:15:17;;;;;;;10.47;4.00;;;;;;;;;;4958240;28;20241;-77
2023/01/17 06:17:43;;;;;;;8.50;3.90;;;;;;;;;;4939039;28;20194;-84
2023/01/17 06:20:11;;;;;;;13.17;3.87;;;;;;;;;;4975287;28;20210;-84
2023/01/17 06:22:37;;;;;;;8.93;3.27;;;;;;;;;;4958721;28;20182;-84
2023/01/17 06:25:03;;;;;;;9.27;3.17;;;;;;;;;;4975450;28;20214;-84
2023/01/17 06:27:29;;;;;;;10.17;2.90;;;;;;;;;;4942497;28;20277;-84
2023/01/17 06:29:55;;;;;;;9.97;3.00;;;;;;;;;;4937656;29;20286;-84
2023/01/17 06:32:21;;;;;;;7.80;2.70;;;;;;;;;;4922798;29;20278;-79
2023/01/17 06:34:47;;;;;;;7.90;2.83;;;;;;;;;;4923377;29;20218;-79
2023/01/17 06:37:13;;;;;;;6.90;2.83;;;;;;;;;;4929993;28;20195;-78
2023/01/17 06:39:39;;;;;;;8.87;2.87;;;;;;;;;;4941108;28;20195;-79
2023/01/17 06:42:05;;;;;;;10.67;3.30;;;;;;;;;;4957998;28;20193;-79
2023/01/17 06:44:31;;;;;;;11.57;3.60;;;;;;;;;;4953518;28;20246;-79
2023/01/17 06:46:57;;;;;;;12.90;4.30;;;;;;;;;;4953861;28;20226;-80
2023/01/17 06:49:23;;;;;;;9.70;3.53;;;;;;;;;;4939482;28;20235;-84
2023/01/17 06:51:49;;;;;;;12.27;4.47;;;;;;;;;;4958301;28;20198;-84
2023/01/17 06:54:15;;;;;;;14.13;4.23;;;;;;;;;;4938538;29;20191;-85
2023/01/17 06:56:41;;;;;;;14.43;4.47;;;;;;;;;;4938966;29;20186;-84
2023/01/17 06:59:10;;;;;;;13.82;5.53;;;;;;;;;;4925898;28;20426;-85
2023/01/17 07:01:36;;;;;;;12.60;4.83;;;;;;;;;;4942743;28;20186;-84
2023/01/17 07:04:03;;;;;;;12.10;4.13;;;;;;;;;;4941814;28;20226;-85
2023/01/17 07:06:29;;;;;;;15.60;4.77;;;;;;;;;;4958229;28;20197;-79
2023/01/17 07:08:55;;;;;;;15.40;5.20;;;;;;;;;;4941931;28;20265;-79
2023/01/17 07:11:22;;;;;;;11.33;5.30;;;;;;;;;;4957834;28;20188;-80
2023/01/17 07:13:48;;;;;;;11.27;5.10;;;;;;;;;;4957947;28;20183;-79
2023/01/17 07:16:14;;;;;;;16.00;6.40;;;;;;;;;;4941917;28;20278;-79
2023/01/17 07:18:40;;;;;;;14.60;5.97;;;;;;;;;;4941415;28;20194;-78
2023/01/17 07:21:11;;;;;;;15.47;5.00;;;;;;;;;;4940594;28;20191;-79
2023/01/17 07:23:37;;;;;;;11.40;4.93;;;;;;;;;;4957703;28;20190;-84
2023/01/17 07:26:03;;;;;;;9.53;4.67;;;;;;;;;;4942002;28;20225;-85
2023/01/17 07:28:29;;;;;;;10.43;5.03;;;;;;;;;;4947410;28;20190;-84
2023/01/17 07:30:56;;;;;;;12.37;5.20;;;;;;;;;;4957657;28;20183;-84
2023/01/17 07:33:22;;;;;;;11.53;4.90;;;;;;;;;;4957592;28;20225;-84
2023/01/17 07:35:48;;;;;;;8.30;4.37;;;;;;;;;;4942341;28;20286;-85
2023/01/17 07:38:18;;;;;;;9.33;4.47;;;;;;;;;;4941865;28;20341;-84
2023/01/17 07:40:45;;;;;;;9.20;4.70;;;;;;;;;;4957387;28;20187;-83
2023/01/17 07:43:14;;;;;;;13.20;5.03;;;;;;;;;;4957320;28;20217;-83
2023/01/17 07:45:41;;;;;;;14.07;5.10;;;;;;;;;;4926948;29;20215;-83
2023/01/17 07:48:07;;;;;;;18.33;4.83;;;;;;;;;;4935662;28;20182;-83
2023/01/17 07:50:34;;;;;;;9.10;5.00;;;;;;;;;;4945307;28;20334;-82
2023/01/17 07:53:00;;;;;;;14.40;6.03;;;;;;;;;;4961101;28;20174;-82
2023/01/17 07:55:26;;;;;;;13.13;6.30;;;;;;;;;;4960710;28;20186;-83
2023/01/17 07:57:52;;;;;;;16.73;6.57;;;;;;;;;;4943810;28;20190;-84
2023/01/17 08:00:18;;;;;;;12.43;6.37;;;;;;;;;;4942862;28;20218;-84
2023/01/17 08:02:44;;;;;;;14.57;7.17;;;;;;;;;;4956065;28;20191;-85
2023/01/17 08:05:10;;;;;;;16.53;7.10;;;;;;;;;;4954900;28;20248;-84
2023/01/17 08:07:36;;;;;;;19.87;7.77;;;;;;;;;;4959741;28;20218;-85
2023/01/17 08:10:02;;;;;;;16.10;7.63;;;;;;;;;;4959438;28;20206;-85
2023/01/17 08:12:28;;;;;;;15.53;7.67;;;;;;;;;;4943167;28;20190;-79
2023/01/17 08:14:54;;;;;;;15.93;7.93;;;;;;;;;;4960111;28;20217;-79
2023/01/17 08:17:20;;;;;;;16.73;8.80;;;;;;;;;;4958178;28;20226;-79
2023/01/17 08:19:51;;;;;;;16.70;9.40;;;;;;;;;;4952904;28;20190;-79
2023/01/17 08:22:17;;;;;;;20.57;9.27;;;;;;;;;;4958375;28;20198;-79
2023/01/17 08:24:43;;;;;;;17.97;8.93;;;;;;;;;;4959165;28;20217;-78
2023/01/17 08:27:09;;;;;;;14.33;8.73;;;;;;;;;;4977017;28;20193;-78
2023/01/17 08:29:35;;;;;;;18.27;8.70;;;;;;;;;;4971163;28;20187;-84
2023/01/17 08:32:02;;;;;;;14.87;8.57;;;;;;;;;;4960163;28;20179;-85
2023/01/17 08:34:28;;;;;;;20.17;8.43;;;;;;;;;;4959412;28;20194;-85
2023/01/17 08:36:54;;;;;;;11.93;8.50;;;;;;;;;;4960157;28;20210;-84
2023/01/17 08:39:20;;;;;;;22.27;10.03;;;;;;;;;;4961521;28;20206;-84
2023/01/17 08:41:46;;;;;;;16.57;9.33;;;;;;;;;;4976290;28;20187;-84
2023/01/17 08:44:14;;;;;;;15.20;10.43;;;;;;;;;;4975808;28;20206;-84
2023/01/17 08:46:40;;;;;;;20.10;10.97;;;;;;;;;;4959007;28;20186;-81
2023/01/17 08:49:08;;;;;;;17.57;9.97;;;;;;;;;;4956942;28;20191;-79
2023/01/17 08:51:34;;;;;;;21.07;10.90;;;;;;;;;;4964929;28;20183;-80
2023/01/17 08:54:00;;;;;;;18.73;11.07;;;;;;;;;;4976019;28;20182;-80
2023/01/17 08:56:26;;;;;;;15.73;11.73;;;;;;;;;;4958576;28;20233;-79
2023/01/17 08:58:52;;;;;;;22.03;11.73;;;;;;;;;;4942167;28;20205;-79
2023/01/17 09:01:18;;;;;;;16.10;10.90;;;;;;;;;;4974702;28;20203;-79
2023/01/17 09:03:44;;;;;;;15.63;10.90;;;;;;;;;;4939326;29;20306;-79
2023/01/17 09:06:12;;;;;;;20.70;10.33;;;;;;;;;;4924568;29;20238;-78
2023/01/17 09:08:38;;;;;;;15.13;9.53;;;;;;;;;;4940234;29;20234;-79
2023/01/17 09:11:09;;;;;;;15.17;8.93;;;;;;;;;;4934615;28;20187;-79
2023/01/17 09:13:35;;;;;;;15.77;9.57;;;;;;;;;;4958976;28;20190;-79
2023/01/17 09:16:01;;;;;;;12.63;9.30;;;;;;;;;;4943344;28;20186;-83
2023/01/17 09:18:28;;;;;;;18.20;10.00;;;;;;;;;;4943360;28;20193;-83
2023/01/17 09:20:57;;;;;;;14.07;9.90;;;;;;;;;;4958358;28;20222;-80
2023/01/17 09:23:24;;;;;;;12.30;11.00;;;;;;;;;;4959383;28;20220;-80
2023/01/17 09:25:57;;;;;;;12.27;10.37;;;;;;;;;;4958888;28;20244;-80
2023/01/17 09:28:24;;;;;;;13.83;10.00;;;;;;;;;;4976228;28;20233;-80
2023/01/17 09:30:50;;;;;;;13.03;9.73;;;;;;;;;;4958016;28;20191;-80
2023/01/17 09:33:17;;;;;;;13.00;9.43;;;;;;;;;;4957676;28;20210;-85
2023/01/17 09:35:43;;;;;;;12.70;9.13;;;;;;;;;;4959033;28;20225;-80
2023/01/17 09:38:10;;;;;;;13.43;9.07;;;;;;;;;;4943137;28;20266;-80
2023/01/17 09:40:37;;;;;;;14.57;8.87;;;;;;;;;;4974937;28;20191;-85
2023/01/17 09:43:06;;;;;;;12.07;9.00;;;;;;;;;;4958578;28;20189;-85
2023/01/17 09:45:33;;;;;;;10.13;7.93;;;;;;;;;;4954025;28;20215;-85
2023/01/17 09:48:00;;;;;;;10.13;8.77;;;;;;;;;;4954250;28;20198;-85
2023/01/17 09:50:26;;;;;;;14.23;8.20;;;;;;;;;;4958799;28;20175;-79
2023/01/17 09:52:59;;;;;;;11.97;8.50;;;;;;;;;;4944296;28;20273;-85
2023/01/17 09:55:26;;;;;;;11.07;8.13;;;;;;;;;;4941962;28;20218;-86
2023/01/17 09:58:13;;;;;;;12.20;7.70;;;;;;;;;;4939149;28;20191;-85
2023/01/17 10:00:39;;;;;;;14.73;8.40;;;;;;;;;;4952072;28;20194;-85
2023/01/17 10:03:24;;;;;;;12.77;8.10;;;;;;;;;;4957213;28;20196;-85
2023/01/17 10:05:59;;;;;;;14.60;8.07;;;;;;;;;;4957044;28;20250;-85
2023/01/17 10:08:25;;;;;;;14.10;8.47;;;;;;;;;;4958583;28;20230;-85
2023/01/17 10:11:11;;;;;;;10.60;7.60;;;;;;;;;;4957052;28;20222;-83
2023/01/17 10:13:46;;;;;;;10.83;7.60;;;;;;;;;;4957965;28;20194;-83
2023/01/17 10:16:18;;;;;;;12.50;7.10;;;;;;;;;;4957524;28;20212;-83
2023/01/17 10:19:03;;;;;;;12.80;7.50;;;;;;;;;;4958279;28;20183;-83
2023/01/17 10:21:43;;;;;;;18.07;8.13;;;;;;;;;;4957768;28;20190;-83
2023/01/17 10:24:32;;;;;;;12.83;8.30;;;;;;;;;;4974448;28;20189;-83
2023/01/17 10:27:00;;;;;;;10.70;7.70;;;;;;;;;;4957295;28;20283;-79
2023/01/17 10:29:28;;;;;;;11.60;8.17;;;;;;;;;;4957896;28;20209;-79
2023/01/17 10:31:58;;;;;;;9.27;7.13;;;;;;;;;;4974965;28;20205;-79
2023/01/17 10:34:29;;;;;;;9.23;7.00;;;;;;;;;;4975203;28;20179;-79
2023/01/17 10:37:00;;;;;;;11.77;8.40;;;;;;;;;;4957303;28;20178;-79
2023/01/17 10:39:28;;;;;;;15.73;8.93;;;;;;;;;;4975139;28;20178;-80
2023/01/17 10:41:59;;;;;;;20.50;16.23;;;;;;;;;;4957789;28;20256;-79
2023/01/17 10:44:28;;;;;;;12.13;8.30;;;;;;;;;;4955435;28;20205;-83
2023/01/17 10:46:54;;;;;;;12.53;9.60;;;;;;;;;;4956874;28;20247;-83
2023/01/17 10:49:21;;;;;;;8.87;7.07;;;;;;;;;;4956633;28;20187;-79
2023/01/17 10:52:07;;;;;;;11.20;7.30;;;;;;;;;;4957025;28;20197;-85
2023/01/17 10:54:37;;;;;;;14.70;7.17;;;;;;;;;;4972725;28;20201;-85
2023/01/17 10:57:03;;;;;;;10.47;6.83;;;;;;;;;;4956661;28;20186;-84
2023/01/17 10:59:31;;;;;;;10.30;6.73;;;;;;;;;;4957171;28;20198;-85
2023/01/17 11:01:58;;;;;;;10.47;6.40;;;;;;;;;;4957182;28;20225;-85
2023/01/17 11:04:30;;;;;;;9.63;6.63;;;;;;;;;;4956641;28;20330;-80
2023/01/17 11:07:13;;;;;;;7.90;6.53;;;;;;;;;;4949197;28;20183;-80
2023/01/17 11:09:43;;;;;;;10.43;6.43;;;;;;;;;;4957807;29;20179;-79
2023/01/17 11:12:21;;;;;;;9.43;6.80;;;;;;;;;;4960082;28;20191;-79
2023/01/17 11:14:57;;;;;;;10.97;6.13;;;;;;;;;;4956947;28;20190;-79
2023/01/17 11:17:23;;;;;;;9.60;6.63;;;;;;;;;;4975321;28;20171;-80
2023/01/17 11:19:50;;;;;;;10.10;6.57;;;;;;;;;;4945629;28;20257;-80
2023/01/17 11:22:17;;;;;;;9.77;6.70;;;;;;;;;;4978044;28;20210;-80
2023/01/17 11:24:52;;;;;;;8.23;7.27;;;;;;;;;;4954355;28;20302;-80
2023/01/17 11:27:24;;;;;;;12.57;6.90;;;;;;;;;;4955758;28;20189;-80
2023/01/17 11:30:01;;;;;;;9.90;6.90;;;;;;;;;;4960809;28;20186;-80
2023/01/17 11:32:30;;;;;;;11.03;6.10;;;;;;;;;;4961013;28;20179;-84
2023/01/17 11:35:07;;;;;;;11.70;6.13;;;;;;;;;;4978273;28;20183;-85
2023/01/17 11:37:35;;;;;;;10.77;6.47;;;;;;;;;;4978505;28;20178;-85
2023/01/17 11:40:08;;;;;;;9.60;6.27;;;;;;;;;;4961105;28;20186;-85
2023/01/17 11:42:35;;;;;;;6.87;5.83;;;;;;;;;;4960873;28;20265;-85
2023/01/17 11:45:22;;;;;;;11.83;7.00;;;;;;;;;;4953768;28;20211;-85
2023/01/17 11:47:48;;;;;;;8.17;5.73;;;;;;;;;;4941674;29;20183;-85
2023/01/17 11:50:24;;;;;;;7.33;5.60;;;;;;;;;;4926036;29;20188;-79
2023/01/17 11:52:51;;;;;;;9.63;5.77;;;;;;;;;;4941728;29;20187;-79
2023/01/17 11:55:17;;;;;;;9.47;5.40;;;;;;;;;;4941471;29;20298;-79
2023/01/17 11:57:48;;;;;;;9.67;5.77;;;;;;;;;;4956989;29;20180;-79
2023/01/17 12:00:33;;;;;;;10.47;6.33;;;;;;;;;;4950966;28;20237;-79
2023/01/17 12:03:02;;;;;;;7.40;5.63;;;;;;;;;;4941100;29;20254;-80
2023/01/17 12:05:50;;;;;;;12.73;6.10;;;;;;;;;;4951099;28;20222;-79
2023/01/17 12:08:25;;;;;;;10.10;5.37;;;;;;;;;;4973352;28;20178;-80
2023/01/17 12:10:58;;;;;;;9.40;5.67;;;;;;;;;;4976322;28;20183;-80
2023/01/17 12:16:30;;;;;;;6.47;4.97;;;;;;;;;;4973166;28;20288;-80
2023/01/17 12:19:05;;;;;;;7.47;5.30;;;;;;;;;;4965482;23;20254;-80
2023/01/17 12:21:33;;;;;;;10.40;4.77;;;;;;;;;;4960079;28;20185;-79
2023/01/17 12:24:17;;;;;;;8.67;4.60;;;;;;;;;;4961554;28;20249;-85
2023/01/17 12:26:55;;;;;;;7.80;4.20;;;;;;;;;;4960039;28;20269;-85
2023/01/17 12:29:31;;;;;;;10.03;4.43;;;;;;;;;;4958632;28;20202;-85
2023/01/17 12:32:04;;;;;;;7.83;4.20;;;;;;;;;;4960061;28;20182;-85
2023/01/17 12:34:33;;;;;;;6.93;4.30;;;;;;;;;;4977069;28;20182;-85
2023/01/17 12:37:05;;;;;;;5.83;4.40;;;;;;;;;;4959068;28;20178;-79
2023/01/17 12:39:41;;;;;;;8.20;4.53;;;;;;;;;;4964188;28;20185;-84
2023/01/17 12:42:07;;;;;;;8.13;3.93;;;;;;;;;;4974061;28;20265;-83
2023/01/17 12:44:42;;;;;;;8.63;4.20;;;;;;;;;;4959778;28;20295;-83
2023/01/17 12:47:09;;;;;;;5.73;3.70;;;;;;;;;;4970572;28;20185;-84
2023/01/17 12:49:35;;;;;;;9.43;3.97;;;;;;;;;;4940421;29;20191;-83
2023/01/17 12:52:22;;;;;;;7.10;3.70;;;;;;;;;;4982779;28;20174;-83
2023/01/17 12:54:50;;;;;;;7.47;3.47;;;;;;;;;;4951221;28;20203;-84
2023/01/17 12:57:17;;;;;;;4.70;3.60;;;;;;;;;;4953984;28;20270;-83
2023/01/17 13:00:01;;;;;;;8.40;4.00;;;;;;;;;;4977509;28;20186;-82
2023/01/17 13:02:31;;;;;;;6.40;3.90;;;;;;;;;;4958078;28;20186;-82
2023/01/17 13:05:08;;;;;;;10.03;4.10;;;;;;;;;;4972300;28;20210;-83
2023/01/17 13:07:45;;;;;;;5.30;3.90;;;;;;;;;;4959654;28;20181;-83
2023/01/17 13:10:11;;;;;;;5.83;3.83;;;;;;;;;;4981716;28;20240;-83
2023/01/17 13:12:38;;;;;;;6.67;4.20;;;;;;;;;;4957681;28;20237;-83
2023/01/17 13:15:13;;;;;;;7.07;4.10;;;;;;;;;;4943225;28;20187;-83
2023/01/17 13:17:46;;;;;;;5.57;3.60;;;;;;;;;;4974128;28;20186;-83
2023/01/17 13:20:15;;;;;;;3.70;3.23;;;;;;;;;;4959457;28;20226;-83
2023/01/17 13:22:41;;;;;;;6.60;3.60;;;;;;;;;;4958374;28;20194;-82
2023/01/17 13:25:22;;;;;;;7.27;4.00;;;;;;;;;;4959386;28;20218;-83
2023/01/17 13:27:51;;;;;;;4.57;2.80;;;;;;;;;;4958614;28;20182;-82
2023/01/17 13:30:24;;;;;;;5.93;3.10;;;;;;;;;;4958905;28;20183;-79
2023/01/17 13:33:08;;;;;;;7.23;3.27;;;;;;;;;;4975128;28;20233;-80
2023/01/17 13:35:43;;;;;;;5.57;2.87;;;;;;;;;;4958652;28;20201;-80
2023/01/17 13:38:18;;;;;;;8.23;3.00;;;;;;;;;;4957438;28;20189;-80
2023/01/17 13:40:52;;;;;;;3.43;2.60;;;;;;;;;;4990543;28;20185;-79
2023/01/17 13:43:21;;;;;;;5.00;2.80;;;;;;;;;;4964334;28;20234;-79
2023/01/17 13:45:58;;;;;;;4.63;2.70;;;;;;;;;;4951433;28;20237;-84
2023/01/17 13:48:29;;;;;;;4.67;2.73;;;;;;;;;;4952192;28;20186;-83
2023/01/17 13:51:05;;;;;;;8.20;3.03;;;;;;;;;;4958709;28;20179;-85
2023/01/17 13:53:31;;;;;;;4.63;2.40;;;;;;;;;;4958833;28;20182;-86
2023/01/17 13:56:10;;;;;;;6.67;2.83;;;;;;;;;;4975089;28;20186;-84
2023/01/17 13:58:49;;;;;;;4.13;3.00;;;;;;;;;;4950273;28;20189;-85
2023/01/17 14:01:21;;;;;;;4.20;2.60;;;;;;;;;;4958103;28;20277;-85
2023/01/17 14:03:53;;;;;;;7.17;2.87;;;;;;;;;;4950458;28;20191;-83
2023/01/17 14:06:39;;;;;;;5.53;2.50;;;;;;;;;;4974989;28;20221;-83
2023/01/17 14:09:11;;;;;;;6.73;3.00;;;;;;;;;;4958316;28;20190;-83
2023/01/17 14:11:55;;;;;;;4.60;2.30;;;;;;;;;;4958580;28;20213;-83
2023/01/17 14:14:40;;;;;;;8.63;3.03;;;;;;;;;;4959971;28;20183;-83
2023/01/17 14:17:15;;;;;;;4.27;2.97;;;;;;;;;;4986568;28;20175;-83
2023/01/17 14:19:41;;;;;;;5.13;2.63;;;;;;;;;;4956119;28;20233;-83
2023/01/17 14:22:14;;;;;;;6.83;2.97;;;;;;;;;;4940091;28;20191;-83
2023/01/17 14:24:58;;;;;;;6.27;3.20;;;;;;;;;;4956363;28;20206;-83
2023/01/17 14:27:25;;;;;;;4.80;3.20;;;;;;;;;;4956152;28;20182;-83
2023/01/17 14:29:57;;;;;;;9.13;3.37;;;;;;;;;;4974224;28;20225;-83
2023/01/17 14:32:29;;;;;;;4.37;2.60;;;;;;;;;;4974625;28;20175;-83
2023/01/17 14:34:56;;;;;;;6.00;3.10;;;;;;;;;;4957686;28;20190;-82
2023/01/17 14:37:31;;;;;;;5.03;3.10;;;;;;;;;;4974864;28;20233;-85
2023/01/17 14:39:57;;;;;;;4.90;3.30;;;;;;;;;;4957700;28;20221;-85
2023/01/17 14:42:24;;;;;;;4.80;2.77;;;;;;;;;;4957604;28;20183;-85
2023/01/17 14:45:11;;;;;;;5.40;2.73;;;;;;;;;;4957836;28;20210;-85
2023/01/17 14:47:38;;;;;;;6.40;3.00;;;;;;;;;;4953072;28;20186;-85
2023/01/17 14:50:21;;;;;;;4.07;2.50;;;;;;;;;;4957398;28;20182;-85
2023/01/17 14:52:48;;;;;;;4.23;2.20;;;;;;;;;;4956167;28;20248;-80
2023/01/17 14:55:16;;;;;;;3.53;2.30;;;;;;;;;;4957845;28;20186;-79
2023/01/17 14:57:42;;;;;;;3.57;2.10;;;;;;;;;;4957489;28;20190;-80
2023/01/17 15:00:22;;;;;;;3.27;2.33;;;;;;;;;;4941819;28;20197;-79
2023/01/17 15:02:49;;;;;;;4.23;2.20;;;;;;;;;;4956362;28;20262;-80
2023/01/17 15:05:16;;;;;;;4.67;2.30;;;;;;;;;;4958337;28;20210;-79
2023/01/17 15:07:47;;;;;;;4.40;2.47;;;;;;;;;;4957657;28;20210;-79
2023/01/17 15:10:15;;;;;;;4.20;2.10;;;;;;;;;;4958303;28;20175;-85
2023/01/17 15:12:45;;;;;;;5.07;2.57;;;;;;;;;;4957874;28;20245;-85
2023/01/17 15:15:31;;;;;;;5.93;2.90;;;;;;;;;;4957872;28;20218;-85
2023/01/17 15:18:15;;;;;;;4.93;2.43;;;;;;;;;;4957916;28;20302;-85
2023/01/17 15:20:43;;;;;;;6.23;2.20;;;;;;;;;;4957805;28;20187;-85
2023/01/17 15:23:14;;;;;;;4.73;2.40;;;;;;;;;;4957855;28;20195;-85
2023/01/17 15:25:41;;;;;;;4.00;2.53;;;;;;;;;;4958118;28;20249;-83
2023/01/17 15:28:10;;;;;;;4.37;2.37;;;;;;;;;;4941981;28;20183;-82
2023/01/17 15:30:36;;;;;;;4.27;2.50;;;;;;;;;;4958189;28;20179;-82
2023/01/17 15:33:02;;;;;;;5.23;2.90;;;;;;;;;;4975136;28;20225;-82
2023/01/17 15:35:28;;;;;;;5.23;2.97;;;;;;;;;;4941973;28;20201;-82
2023/01/17 15:37:57;;;;;;;4.93;2.97;;;;;;;;;;4941980;28;20202;-82
2023/01/17 15:40:24;;;;;;;4.73;2.63;;;;;;;;;;4958481;28;20182;-82
2023/01/17 15:42:51;;;;;;;3.87;2.40;;;;;;;;;;4957841;28;20234;-79
2023/01/17 15:45:18;;;;;;;6.07;3.00;;;;;;;;;;4965081;28;20215;-79
2023/01/17 15:47:45;;;;;;;5.43;2.63;;;;;;;;;;4939496;28;20171;-79
2023/01/17 15:50:30;;;;;;;4.70;3.03;;;;;;;;;;4974780;28;20186;-80
2023/01/17 15:53:00;;;;;;;4.83;2.90;;;;;;;;;;4974663;28;20178;-79
2023/01/17 15:55:36;;;;;;;6.50;3.17;;;;;;;;;;4957854;28;20207;-80
2023/01/17 15:58:04;;;;;;;6.23;3.03;;;;;;;;;;4958117;28;20186;-79
2023/01/17 16:00:37;;;;;;;5.57;3.00;;;;;;;;;;4957741;28;20237;-79
2023/01/17 16:03:21;;;;;;;3.63;2.87;;;;;;;;;;4974566;28;20175;-79
2023/01/17 16:05:48;;;;;;;6.57;3.70;;;;;;;;;;4961047;28;20214;-79
2023/01/17 16:08:15;;;;;;;6.30;3.10;;;;;;;;;;4961087;28;20179;-79
2023/01/17 16:10:41;;;;;;;4.30;3.40;;;;;;;;;;4961177;28;20198;-79
2023/01/17 16:13:08;;;;;;;5.63;3.23;;;;;;;;;;4960550;28;20291;-79
2023/01/17 16:15:35;;;;;;;6.97;3.57;;;;;;;;;;4960776;28;20189;-79
2023/01/17 16:18:07;;;;;;;3.67;2.97;;;;;;;;;;4960453;28;20234;-82